sensor_id;sensor_type;location;lat;lon;timestamp;pressure;altitude;pressure_sealevel;temperature;humidity
59274;BME280;45044;41.572;24.730;2023-06-05T00:00:09;91852.81;;;12.02;100.00
59274;BME280;45044;41.572;24.730;2023-06-05T00:02:36;91853.97;;;12.01;100.00
59274;BME280;45044;41.572;24.730;2023-06-05T00:05:03;91864.09;;;11.99;100.00
59274;BME280;45044;41.572;24.730;2023-06-05T00:07:36;91851.31;;;12.01;100.00
59274;BME280;45044;41.572;24.730;2023-06-05T00:10:08;91841.84;;;11.93;100.00
59274;BME280;45044;41.572;24.730;2023-06-05T00:12:35;91846.00;;;11.90;100.00
59274;BME280;45044;41.572;24.730;2023-06-05T00:15:03;91850.41;;;11.75;100.00
59274;BME280;45044;41.572;24.730;2023-06-05T00:17:31;91854.84;;;11.64;100.00
59274;BME280;45044;41.572;24.730;2023-06-05T00:19:58;91855.63;;;11.68;100.00
59274;BME280;45044;41.572;24.730;2023-06-05T00:22:29;91848.50;;;11.68;100.00
59274;BME280;45044;41.572;24.730;2023-06-05T00:24:57;91845.72;;;11.46;100.00
59274;BME280;45044;41.572;24.730;2023-06-05T00:27:24;91847.19;;;11.44;100.00
59274;BME280;45044;41.572;24.730;2023-06-05T00:29:51;91857.38;;;11.49;100.00
59274;BME280;45044;41.572;24.730;2023-06-05T00:32:18;91851.34;;;11.45;100.00
59274;BME280;45044;41.572;24.730;2023-06-05T00:34:49;91847.25;;;11.51;100.00
59274;BME280;45044;41.572;24.730;2023-06-05T00:37:19;91843.50;;;11.52;100.00
59274;BME280;45044;41.572;24.730;2023-06-05T00:39:46;91844.97;;;11.49;100.00
59274;BME280;45044;41.572;24.730;2023-06-05T00:42:14;91846.41;;;11.43;100.00
59274;BME280;45044;41.572;24.730;2023-06-05T00:44:41;91846.72;;;11.34;100.00
59274;BME280;45044;41.572;24.730;2023-06-05T00:47:08;91840.75;;;11.37;100.00
59274;BME280;45044;41.572;24.730;2023-06-05T00:49:35;91836.53;;;11.25;100.00
59274;BME280;45044;41.572;24.730;2023-06-05T00:52:02;91838.00;;;11.23;100.00
59274;BME280;45044;41.572;24.730;2023-06-05T00:54:29;91842.09;;;11.17;100.00
59274;BME280;45044;41.572;24.730;2023-06-05T00:56:56;91837.97;;;11.16;100.00
59274;BME280;45044;41.572;24.730;2023-06-05T00:59:23;91834.59;;;11.19;100.00
59274;BME280;45044;41.572;24.730;2023-06-05T01:01:50;91831.97;;;11.19;100.00
59274;BME280;45044;41.572;24.730;2023-06-05T01:04:19;91833.81;;;11.18;100.00
59274;BME280;45044;41.572;24.730;2023-06-05T01:06:45;91831.94;;;11.15;100.00
59274;BME280;45044;41.572;24.730;2023-06-05T01:09:12;91836.44;;;11.14;100.00
59274;BME280;45044;41.572;24.730;2023-06-05T01:12:08;91836.38;;;11.07;100.00
59274;BME280;45044;41.572;24.730;2023-06-05T01:14:41;91831.50;;;11.09;100.00
59274;BME280;45044;41.572;24.730;2023-06-05T01:17:13;91821.72;;;11.06;100.00
59274;BME280;45044;41.572;24.730;2023-06-05T01:19:40;91824.34;;;11.06;100.00
59274;BME280;45044;41.572;24.730;2023-06-05T01:22:07;91839.28;;;10.95;100.00
59274;BME280;45044;41.572;24.730;2023-06-05T01:24:34;91830.41;;;10.69;100.00
59274;BME280;45044;41.572;24.730;2023-06-05T01:32:43;91829.69;;;10.72;100.00
59274;BME280;45044;41.572;24.730;2023-06-05T01:35:14;91839.72;;;10.62;100.00
59274;BME280;45044;41.572;24.730;2023-06-05T01:37:48;91843.50;;;10.65;100.00
59274;BME280;45044;41.572;24.730;2023-06-05T01:40:23;91843.19;;;10.70;100.00
59274;BME280;45044;41.572;24.730;2023-06-05T01:42:51;91843.56;;;10.69;100.00
59274;BME280;45044;41.572;24.730;2023-06-05T01:45:21;91838.28;;;10.69;100.00
59274;BME280;45044;41.572;24.730;2023-06-05T01:47:48;91826.66;;;10.70;100.00
59274;BME280;45044;41.572;24.730;2023-06-05T01:50:17;91830.75;;;10.67;100.00
59274;BME280;45044;41.572;24.730;2023-06-05T01:52:45;91840.53;;;10.66;100.00
59274;BME280;45044;41.572;24.730;2023-06-05T01:55:22;91833.69;;;10.62;100.00
59274;BME280;45044;41.572;24.730;2023-06-05T01:57:53;91846.56;;;10.71;100.00
59274;BME280;45044;41.572;24.730;2023-06-05T02:00:20;91841.06;;;10.49;100.00
59274;BME280;45044;41.572;24.730;2023-06-05T02:02:49;91844.34;;;10.42;100.00
59274;BME280;45044;41.572;24.730;2023-06-05T02:05:17;91857.44;;;10.38;100.00
59274;BME280;45044;41.572;24.730;2023-06-05T02:07:47;91857.97;;;10.48;100.00
59274;BME280;45044;41.572;24.730;2023-06-05T02:10:21;91853.47;;;10.48;100.00
59274;BME280;45044;41.572;24.730;2023-06-05T02:12:48;91852.38;;;10.53;100.00
59274;BME280;45044;41.572;24.730;2023-06-05T02:15:15;91850.13;;;10.51;100.00
59274;BME280;45044;41.572;24.730;2023-06-05T02:17:43;91858.41;;;10.53;100.00
59274;BME280;45044;41.572;24.730;2023-06-05T02:20:18;91859.16;;;10.54;100.00
59274;BME280;45044;41.572;24.730;2023-06-05T02:22:45;91851.66;;;10.56;100.00
59274;BME280;45044;41.572;24.730;2023-06-05T02:25:12;91850.88;;;10.52;100.00
59274;BME280;45044;41.572;24.730;2023-06-05T02:27:39;91844.88;;;10.21;100.00
59274;BME280;45044;41.572;24.730;2023-06-05T02:30:06;91844.28;;;10.35;100.00
59274;BME280;45044;41.572;24.730;2023-06-05T02:32:35;91850.53;;;10.23;100.00
59274;BME280;45044;41.572;24.730;2023-06-05T02:35:02;91859.59;;;10.29;100.00
59274;BME280;45044;41.572;24.730;2023-06-05T02:37:31;91855.81;;;10.26;100.00
59274;BME280;45044;41.572;24.730;2023-06-05T02:40:04;91856.66;;;10.34;100.00
59274;BME280;45044;41.572;24.730;2023-06-05T02:42:35;91857.78;;;10.33;100.00
59274;BME280;45044;41.572;24.730;2023-06-05T02:45:02;91860.03;;;10.35;100.00
59274;BME280;45044;41.572;24.730;2023-06-05T02:47:29;91863.44;;;10.35;100.00
59274;BME280;45044;41.572;24.730;2023-06-05T02:49:57;91856.44;;;10.47;100.00
59274;BME280;45044;41.572;24.730;2023-06-05T02:52:24;91856.88;;;10.52;100.00
59274;BME280;45044;41.572;24.730;2023-06-05T02:55:04;91859.81;;;10.47;100.00
59274;BME280;45044;41.572;24.730;2023-06-05T02:57:31;91869.19;;;10.45;100.00
59274;BME280;45044;41.572;24.730;2023-06-05T03:00:09;91869.56;;;10.47;100.00
59274;BME280;45044;41.572;24.730;2023-06-05T03:02:41;91860.44;;;10.37;100.00
59274;BME280;45044;41.572;24.730;2023-06-05T03:05:08;91861.81;;;10.54;100.00
59274;BME280;45044;41.572;24.730;2023-06-05T03:07:35;91856.63;;;10.61;100.00
59274;BME280;45044;41.572;24.730;2023-06-05T03:10:03;91852.41;;;10.57;100.00
59274;BME280;45044;41.572;24.730;2023-06-05T03:12:29;91854.69;;;10.58;100.00
59274;BME280;45044;41.572;24.730;2023-06-05T03:14:56;91845.75;;;10.32;100.00
59274;BME280;45044;41.572;24.730;2023-06-05T03:17:23;91851.13;;;10.09;100.00
59274;BME280;45044;41.572;24.730;2023-06-05T03:19:50;91856.41;;;10.12;100.00
59274;BME280;45044;41.572;24.730;2023-06-05T03:22:17;91852.03;;;10.24;100.00
59274;BME280;45044;41.572;24.730;2023-06-05T03:24:45;91850.69;;;10.37;100.00
59274;BME280;45044;41.572;24.730;2023-06-05T03:27:12;91849.47;;;10.31;100.00
59274;BME280;45044;41.572;24.730;2023-06-05T03:29:39;91855.66;;;10.12;100.00
59274;BME280;45044;41.572;24.730;2023-06-05T03:32:06;91849.75;;;10.22;100.00
59274;BME280;45044;41.572;24.730;2023-06-05T03:34:32;91853.63;;;10.32;100.00
59274;BME280;45044;41.572;24.730;2023-06-05T03:37:03;91850.28;;;10.35;100.00
59274;BME280;45044;41.572;24.730;2023-06-05T03:39:30;91850.53;;;10.23;100.00
59274;BME280;45044;41.572;24.730;2023-06-05T03:41:57;91848.72;;;10.30;100.00
59274;BME280;45044;41.572;24.730;2023-06-05T03:44:24;91845.34;;;10.30;100.00
59274;BME280;45044;41.572;24.730;2023-06-05T03:46:51;91843.88;;;10.33;100.00
59274;BME280;45044;41.572;24.730;2023-06-05T03:49:18;91839.78;;;10.35;100.00
59274;BME280;45044;41.572;24.730;2023-06-05T03:51:47;91843.53;;;10.38;100.00
59274;BME280;45044;41.572;24.730;2023-06-05T03:54:14;91833.81;;;10.38;100.00
59274;BME280;45044;41.572;24.730;2023-06-05T03:56:43;91837.16;;;10.35;100.00
59274;BME280;45044;41.572;24.730;2023-06-05T03:59:16;91841.31;;;10.40;100.00
59274;BME280;45044;41.572;24.730;2023-06-05T04:01:46;91841.63;;;10.35;100.00
59274;BME280;45044;41.572;24.730;2023-06-05T04:04:13;91840.22;;;10.41;100.00
59274;BME280;45044;41.572;24.730;2023-06-05T04:06:40;91836.66;;;10.26;100.00
59274;BME280;45044;41.572;24.730;2023-06-05T04:09:07;91836.34;;;10.31;100.00
59274;BME280;45044;41.572;24.730;2023-06-05T04:11:41;91834.94;;;10.37;100.00
59274;BME280;45044;41.572;24.730;2023-06-05T04:14:09;91828.75;;;10.22;100.00
59274;BME280;45044;41.572;24.730;2023-06-05T04:16:37;91825.44;;;10.29;100.00
59274;BME280;45044;41.572;24.730;2023-06-05T04:19:11;91826.75;;;10.46;100.00
59274;BME280;45044;41.572;24.730;2023-06-05T04:21:38;91823.44;;;10.49;100.00
59274;BME280;45044;41.572;24.730;2023-06-05T04:24:06;91823.56;;;10.64;100.00
59274;BME280;45044;41.572;24.730;2023-06-05T04:26:36;91813.91;;;10.72;100.00
59274;BME280;45044;41.572;24.730;2023-06-05T04:29:04;91818.44;;;10.75;100.00
59274;BME280;45044;41.572;24.730;2023-06-05T04:31:32;91814.28;;;10.74;100.00
59274;BME280;45044;41.572;24.730;2023-06-05T04:34:00;91818.91;;;10.84;100.00
59274;BME280;45044;41.572;24.730;2023-06-05T04:36:28;91822.00;;;10.94;100.00
59274;BME280;45044;41.572;24.730;2023-06-05T04:38:55;91828.06;;;12.18;100.00
59274;BME280;45044;41.572;24.730;2023-06-05T04:41:22;91832.78;;;12.83;100.00
59274;BME280;45044;41.572;24.730;2023-06-05T04:43:49;91848.63;;;14.07;100.00
59274;BME280;45044;41.572;24.730;2023-06-05T04:46:17;91860.31;;;16.10;100.00
59274;BME280;45044;41.572;24.730;2023-06-05T04:48:44;91863.56;;;17.70;100.00
59274;BME280;45044;41.572;24.730;2023-06-05T04:51:12;91860.66;;;18.90;100.00
59274;BME280;45044;41.572;24.730;2023-06-05T04:53:38;91861.94;;;19.90;100.00
59274;BME280;45044;41.572;24.730;2023-06-05T04:56:08;91864.31;;;20.77;100.00
59274;BME280;45044;41.572;24.730;2023-06-05T04:58:35;91863.22;;;21.30;100.00
59274;BME280;45044;41.572;24.730;2023-06-05T05:01:02;91865.81;;;21.95;100.00
59274;BME280;45044;41.572;24.730;2023-06-05T05:03:32;91869.50;;;21.36;100.00
59274;BME280;45044;41.572;24.730;2023-06-05T05:05:59;91883.72;;;21.59;100.00
59274;BME280;45044;41.572;24.730;2023-06-05T05:08:25;91877.50;;;21.10;100.00
59274;BME280;45044;41.572;24.730;2023-06-05T05:10:54;91872.78;;;21.66;100.00
59274;BME280;45044;41.572;24.730;2023-06-05T05:13:21;91882.97;;;22.78;100.00
59274;BME280;45044;41.572;24.730;2023-06-05T05:15:47;91881.13;;;23.61;99.71
59274;BME280;45044;41.572;24.730;2023-06-05T05:18:14;91878.25;;;24.15;92.94
59274;BME280;45044;41.572;24.730;2023-06-05T05:20:42;91869.59;;;24.77;86.49
59274;BME280;45044;41.572;24.730;2023-06-05T05:23:09;91879.78;;;25.35;77.42
59274;BME280;45044;41.572;24.730;2023-06-05T05:25:37;91877.53;;;25.77;72.47
59274;BME280;45044;41.572;24.730;2023-06-05T05:28:04;91880.06;;;26.05;68.10
59274;BME280;45044;41.572;24.730;2023-06-05T05:30:31;91872.16;;;26.81;63.60
59274;BME280;45044;41.572;24.730;2023-06-05T05:32:59;91874.56;;;26.94;63.04
59274;BME280;45044;41.572;24.730;2023-06-05T05:35:26;91875.53;;;27.21;61.12
59274;BME280;45044;41.572;24.730;2023-06-05T05:37:52;91872.94;;;27.98;57.53
59274;BME280;45044;41.572;24.730;2023-06-05T05:40:19;91877.22;;;28.47;54.94
59274;BME280;45044;41.572;24.730;2023-06-05T05:42:46;91874.38;;;28.36;54.20
59274;BME280;45044;41.572;24.730;2023-06-05T05:45:13;91872.81;;;28.29;54.47
59274;BME280;45044;41.572;24.730;2023-06-05T05:47:39;91875.44;;;28.23;54.71
59274;BME280;45044;41.572;24.730;2023-06-05T05:50:07;91863.50;;;28.77;53.24
59274;BME280;45044;41.572;24.730;2023-06-05T05:52:34;91871.63;;;29.04;52.42
59274;BME280;45044;41.572;24.730;2023-06-05T05:55:01;91867.53;;;29.47;51.72
59274;BME280;45044;41.572;24.730;2023-06-05T05:57:30;91861.16;;;29.56;51.74
59274;BME280;45044;41.572;24.730;2023-06-05T05:59:57;91855.59;;;28.47;53.79
59274;BME280;45044;41.572;24.730;2023-06-05T06:02:24;91861.19;;;26.84;60.43
59274;BME280;45044;41.572;24.730;2023-06-05T06:04:51;91861.72;;;26.58;66.67
59274;BME280;45044;41.572;24.730;2023-06-05T06:07:18;91859.41;;;26.26;68.17
59274;BME280;45044;41.572;24.730;2023-06-05T06:09:45;91867.63;;;27.17;64.07
59274;BME280;45044;41.572;24.730;2023-06-05T06:12:12;91863.56;;;26.37;70.33
59274;BME280;45044;41.572;24.730;2023-06-05T06:14:39;91873.75;;;27.84;58.71
59274;BME280;45044;41.572;24.730;2023-06-05T06:17:06;91874.25;;;26.22;67.26
59274;BME280;45044;41.572;24.730;2023-06-05T06:19:36;91869.72;;;27.28;63.21
59274;BME280;45044;41.572;24.730;2023-06-05T06:22:04;91870.09;;;27.51;59.50
59274;BME280;45044;41.572;24.730;2023-06-05T06:24:39;91868.34;;;27.33;64.08
59274;BME280;45044;41.572;24.730;2023-06-05T06:27:06;91870.09;;;27.51;60.54
59274;BME280;45044;41.572;24.730;2023-06-05T06:29:53;91858.63;;;28.55;57.67
59274;BME280;45044;41.572;24.730;2023-06-05T06:32:20;91857.28;;;29.24;54.31
59274;BME280;45044;41.572;24.730;2023-06-05T06:34:48;91856.97;;;28.63;56.31
59274;BME280;45044;41.572;24.730;2023-06-05T06:37:15;91852.31;;;28.90;53.78
59274;BME280;45044;41.572;24.730;2023-06-05T06:39:43;91856.97;;;28.37;58.63
59274;BME280;45044;41.572;24.730;2023-06-05T06:42:10;91854.09;;;27.83;57.25
59274;BME280;45044;41.572;24.730;2023-06-05T06:44:38;91849.72;;;26.19;66.06
59274;BME280;45044;41.572;24.730;2023-06-05T06:47:05;91844.72;;;26.97;69.84
59274;BME280;45044;41.572;24.730;2023-06-05T06:49:33;91846.69;;;27.63;64.00
59274;BME280;45044;41.572;24.730;2023-06-05T06:52:00;91847.97;;;26.86;67.54
59274;BME280;45044;41.572;24.730;2023-06-05T06:54:27;91848.50;;;27.51;64.31
59274;BME280;45044;41.572;24.730;2023-06-05T06:56:55;91842.22;;;27.96;60.00
59274;BME280;45044;41.572;24.730;2023-06-05T06:59:22;91843.13;;;27.72;63.44
59274;BME280;45044;41.572;24.730;2023-06-05T07:02:14;91835.34;;;26.93;65.60
59274;BME280;45044;41.572;24.730;2023-06-05T07:04:43;91831.34;;;26.88;67.10
59274;BME280;45044;41.572;24.730;2023-06-05T07:07:11;91825.94;;;27.33;65.04
59274;BME280;45044;41.572;24.730;2023-06-05T07:09:39;91831.25;;;27.84;65.93
59274;BME280;45044;41.572;24.730;2023-06-05T07:12:10;91824.38;;;27.62;67.29
59274;BME280;45044;41.572;24.730;2023-06-05T07:14:38;91820.50;;;27.69;63.46
59274;BME280;45044;41.572;24.730;2023-06-05T07:17:06;91835.09;;;27.42;67.17
59274;BME280;45044;41.572;24.730;2023-06-05T07:19:34;91839.78;;;26.96;66.30
59274;BME280;45044;41.572;24.730;2023-06-05T07:22:03;91842.41;;;26.75;65.42
59274;BME280;45044;41.572;24.730;2023-06-05T07:24:34;91842.72;;;26.37;72.11
59274;BME280;45044;41.572;24.730;2023-06-05T07:27:03;91825.44;;;25.55;83.16
59274;BME280;45044;41.572;24.730;2023-06-05T07:29:31;91823.78;;;24.62;100.00
59274;BME280;45044;41.572;24.730;2023-06-05T07:31:58;91825.28;;;23.88;100.00
59274;BME280;45044;41.572;24.730;2023-06-05T07:34:26;91823.84;;;23.04;100.00
59274;BME280;45044;41.572;24.730;2023-06-05T07:36:53;91822.75;;;23.24;100.00
59274;BME280;45044;41.572;24.730;2023-06-05T07:39:22;91838.09;;;21.76;100.00
59274;BME280;45044;41.572;24.730;2023-06-05T07:41:49;91832.31;;;21.90;100.00
59274;BME280;45044;41.572;24.730;2023-06-05T07:44:18;91824.78;;;22.11;100.00
59274;BME280;45044;41.572;24.730;2023-06-05T07:46:47;91836.22;;;22.34;100.00
59274;BME280;45044;41.572;24.730;2023-06-05T07:49:14;91823.53;;;22.48;100.00
59274;BME280;45044;41.572;24.730;2023-06-05T07:51:45;91829.19;;;22.50;100.00
59274;BME280;45044;41.572;24.730;2023-06-05T07:54:20;91828.72;;;22.96;100.00
59274;BME280;45044;41.572;24.730;2023-06-05T07:56:48;91827.22;;;23.27;100.00
59274;BME280;45044;41.572;24.730;2023-06-05T07:59:18;91829.88;;;22.19;100.00
59274;BME280;45044;41.572;24.730;2023-06-05T08:01:51;91831.63;;;21.64;100.00
59274;BME280;45044;41.572;24.730;2023-06-05T08:04:19;91842.19;;;21.68;100.00
59274;BME280;45044;41.572;24.730;2023-06-05T08:06:46;91838.66;;;21.58;100.00
59274;BME280;45044;41.572;24.730;2023-06-05T08:09:13;91817.66;;;21.08;100.00
59274;BME280;45044;41.572;24.730;2023-06-05T08:11:40;91827.72;;;21.78;100.00
59274;BME280;45044;41.572;24.730;2023-06-05T08:14:08;91837.06;;;21.86;100.00
59274;BME280;45044;41.572;24.730;2023-06-05T08:16:36;91833.97;;;21.49;100.00
59274;BME280;45044;41.572;24.730;2023-06-05T08:19:03;91830.50;;;21.74;100.00
59274;BME280;45044;41.572;24.730;2023-06-05T08:21:30;91834.84;;;22.07;100.00
59274;BME280;45044;41.572;24.730;2023-06-05T08:23:57;91837.34;;;21.88;100.00
59274;BME280;45044;41.572;24.730;2023-06-05T08:26:24;91840.19;;;22.07;100.00
59274;BME280;45044;41.572;24.730;2023-06-05T08:28:54;91841.16;;;22.36;100.00
59274;BME280;45044;41.572;24.730;2023-06-05T08:31:21;91836.63;;;22.46;100.00
59274;BME280;45044;41.572;24.730;2023-06-05T08:33:48;91827.53;;;22.97;100.00
59274;BME280;45044;41.572;24.730;2023-06-05T08:36:15;91839.47;;;22.29;100.00
59274;BME280;45044;41.572;24.730;2023-06-05T08:38:43;91827.00;;;22.58;100.00
59274;BME280;45044;41.572;24.730;2023-06-05T08:41:13;91838.34;;;22.40;100.00
59274;BME280;45044;41.572;24.730;2023-06-05T08:43:43;91829.94;;;22.73;100.00
59274;BME280;45044;41.572;24.730;2023-06-05T08:46:13;91833.91;;;22.91;100.00
59274;BME280;45044;41.572;24.730;2023-06-05T08:48:45;91839.44;;;21.58;100.00
59274;BME280;45044;41.572;24.730;2023-06-05T08:51:17;91848.13;;;21.98;100.00
59274;BME280;45044;41.572;24.730;2023-06-05T08:54:03;91842.34;;;21.99;100.00
59274;BME280;45044;41.572;24.730;2023-06-05T08:56:31;91841.34;;;21.84;100.00
59274;BME280;45044;41.572;24.730;2023-06-05T08:58:59;91843.19;;;21.61;100.00
59274;BME280;45044;41.572;24.730;2023-06-05T09:01:26;91835.81;;;21.26;100.00
59274;BME280;45044;41.572;24.730;2023-06-05T09:03:53;91828.63;;;20.83;100.00
59274;BME280;45044;41.572;24.730;2023-06-05T09:06:20;91828.88;;;21.02;100.00
59274;BME280;45044;41.572;24.730;2023-06-05T09:08:53;91834.94;;;21.55;100.00
59274;BME280;45044;41.572;24.730;2023-06-05T09:11:31;91825.50;;;22.12;100.00
59274;BME280;45044;41.572;24.730;2023-06-05T09:13:59;91823.38;;;21.84;100.00
59274;BME280;45044;41.572;24.730;2023-06-05T09:16:34;91825.72;;;21.82;100.00
59274;BME280;45044;41.572;24.730;2023-06-05T09:19:01;91831.22;;;22.01;100.00
59274;BME280;45044;41.572;24.730;2023-06-05T09:21:35;91833.75;;;21.82;100.00
59274;BME280;45044;41.572;24.730;2023-06-05T09:24:21;91833.81;;;21.92;100.00
59274;BME280;45044;41.572;24.730;2023-06-05T09:27:00;91830.44;;;21.52;100.00
59274;BME280;45044;41.572;24.730;2023-06-05T09:29:36;91831.72;;;21.86;100.00
59274;BME280;45044;41.572;24.730;2023-06-05T09:32:08;91829.94;;;21.44;100.00
59274;BME280;45044;41.572;24.730;2023-06-05T09:34:36;91825.63;;;21.60;100.00
59274;BME280;45044;41.572;24.730;2023-06-05T09:37:06;91822.41;;;21.65;100.00
59274;BME280;45044;41.572;24.730;2023-06-05T09:39:37;91818.47;;;22.05;100.00
59274;BME280;45044;41.572;24.730;2023-06-05T09:42:04;91814.97;;;22.18;100.00
59274;BME280;45044;41.572;24.730;2023-06-05T09:44:32;91824.63;;;21.80;100.00
59274;BME280;45044;41.572;24.730;2023-06-05T09:47:01;91831.94;;;21.66;100.00
59274;BME280;45044;41.572;24.730;2023-06-05T09:49:54;91820.28;;;21.60;100.00
59274;BME280;45044;41.572;24.730;2023-06-05T09:52:20;91820.94;;;21.38;100.00
59274;BME280;45044;41.572;24.730;2023-06-05T09:54:46;91825.25;;;21.22;100.00
59274;BME280;45044;41.572;24.730;2023-06-05T09:57:15;91825.59;;;21.73;100.00
59274;BME280;45044;41.572;24.730;2023-06-05T09:59:52;91827.38;;;22.02;100.00
59274;BME280;45044;41.572;24.730;2023-06-05T10:02:32;91818.78;;;22.52;100.00
59274;BME280;45044;41.572;24.730;2023-06-05T10:05:01;91808.56;;;22.60;100.00
59274;BME280;45044;41.572;24.730;2023-06-05T10:07:31;91810.81;;;23.25;100.00
59274;BME280;45044;41.572;24.730;2023-06-05T10:10:09;91806.88;;;22.76;100.00
59274;BME280;45044;41.572;24.730;2023-06-05T10:12:36;91816.22;;;23.03;100.00
59274;BME280;45044;41.572;24.730;2023-06-05T10:15:06;91815.56;;;23.21;100.00
59274;BME280;45044;41.572;24.730;2023-06-05T10:17:33;91809.00;;;23.63;93.28
59274;BME280;45044;41.572;24.730;2023-06-05T10:20:05;91803.19;;;23.74;95.58
59274;BME280;45044;41.572;24.730;2023-06-05T10:22:35;91796.91;;;23.49;100.00
59274;BME280;45044;41.572;24.730;2023-06-05T10:25:05;91802.81;;;23.35;99.70
59274;BME280;45044;41.572;24.730;2023-06-05T10:38:40;91789.44;;;23.03;100.00
59274;BME280;45044;41.572;24.730;2023-06-05T10:41:07;91793.97;;;23.15;100.00
59274;BME280;45044;41.572;24.730;2023-06-05T10:43:52;91787.78;;;23.37;100.00
59274;BME280;45044;41.572;24.730;2023-06-05T10:46:31;91788.19;;;23.26;100.00
59274;BME280;45044;41.572;24.730;2023-06-05T10:49:05;91785.16;;;23.75;87.84
59274;BME280;45044;41.572;24.730;2023-06-05T10:51:42;91784.75;;;23.95;100.00
59274;BME280;45044;41.572;24.730;2023-06-05T10:54:11;91777.13;;;23.15;93.19
59274;BME280;45044;41.572;24.730;2023-06-05T10:59:28;91780.78;;;22.67;84.10
59274;BME280;45044;41.572;24.730;2023-06-05T11:07:26;91779.56;;;22.36;96.41
59274;BME280;45044;41.572;24.730;2023-06-05T11:15:03;91775.59;;;22.41;100.00
59274;BME280;45044;41.572;24.730;2023-06-05T11:17:44;91775.34;;;22.80;100.00
59274;BME280;45044;41.572;24.730;2023-06-05T11:30:16;91783.41;;;22.57;86.24
59274;BME280;45044;41.572;24.730;2023-06-05T11:32:56;91780.81;;;22.22;84.45
59274;BME280;45044;41.572;24.730;2023-06-05T11:35:26;91778.97;;;22.32;98.94
59274;BME280;45044;41.572;24.730;2023-06-05T11:38:12;91777.31;;;22.12;100.00
59274;BME280;45044;41.572;24.730;2023-06-05T11:40:41;91770.91;;;22.09;100.00
59274;BME280;45044;41.572;24.730;2023-06-05T11:43:09;91779.34;;;22.21;97.06
59274;BME280;45044;41.572;24.730;2023-06-05T11:45:38;91772.34;;;22.46;98.68
59274;BME280;45044;41.572;24.730;2023-06-05T11:48:10;91774.97;;;22.36;100.00
59274;BME280;45044;41.572;24.730;2023-06-05T11:50:39;91774.34;;;22.32;99.76
59274;BME280;45044;41.572;24.730;2023-06-05T11:53:08;91777.31;;;22.34;100.00
59274;BME280;45044;41.572;24.730;2023-06-05T11:55:35;91770.47;;;22.33;100.00
59274;BME280;45044;41.572;24.730;2023-06-05T11:58:22;91761.25;;;22.34;93.88
59274;BME280;45044;41.572;24.730;2023-06-05T12:00:49;91762.84;;;22.54;84.22
59274;BME280;45044;41.572;24.730;2023-06-05T12:03:21;91754.03;;;23.08;100.00
59274;BME280;45044;41.572;24.730;2023-06-05T12:05:48;91762.63;;;23.03;100.00
59274;BME280;45044;41.572;24.730;2023-06-05T12:08:25;91769.28;;;22.89;94.56
59274;BME280;45044;41.572;24.730;2023-06-05T12:10:52;91760.25;;;22.64;90.99
59274;BME280;45044;41.572;24.730;2023-06-05T12:13:19;91761.91;;;22.70;100.00
59274;BME280;45044;41.572;24.730;2023-06-05T12:15:59;91745.13;;;22.79;91.18
59274;BME280;45044;41.572;24.730;2023-06-05T12:18:33;91755.53;;;22.45;100.00
59274;BME280;45044;41.572;24.730;2023-06-05T12:21:03;91748.56;;;22.48;93.53
59274;BME280;45044;41.572;24.730;2023-06-05T12:23:32;91744.81;;;22.45;89.53
59274;BME280;45044;41.572;24.730;2023-06-05T12:26:01;91746.16;;;22.72;90.97
59274;BME280;45044;41.572;24.730;2023-06-05T12:28:30;91741.53;;;22.73;84.54
59274;BME280;45044;41.572;24.730;2023-06-05T12:30:57;91743.44;;;22.41;93.24
59274;BME280;45044;41.572;24.730;2023-06-05T12:33:24;91749.88;;;22.21;95.39
59274;BME280;45044;41.572;24.730;2023-06-05T12:36:07;91752.50;;;21.76;95.76
59274;BME280;45044;41.572;24.730;2023-06-05T12:38:38;91752.38;;;21.80;91.93
59274;BME280;45044;41.572;24.730;2023-06-05T12:41:06;91747.56;;;21.87;100.00
59274;BME280;45044;41.572;24.730;2023-06-05T12:43:34;91751.91;;;21.72;100.00
59274;BME280;45044;41.572;24.730;2023-06-05T12:46:01;91755.66;;;21.61;100.00
59274;BME280;45044;41.572;24.730;2023-06-05T12:48:28;91750.50;;;21.67;100.00
59274;BME280;45044;41.572;24.730;2023-06-05T12:50:55;91748.31;;;21.39;100.00
59274;BME280;45044;41.572;24.730;2023-06-05T12:53:23;91754.09;;;21.51;100.00
59274;BME280;45044;41.572;24.730;2023-06-05T12:55:49;91753.72;;;21.62;100.00
59274;BME280;45044;41.572;24.730;2023-06-05T12:58:16;91759.59;;;21.70;100.00
59274;BME280;45044;41.572;24.730;2023-06-05T13:00:43;91757.00;;;21.79;100.00
59274;BME280;45044;41.572;24.730;2023-06-05T13:03:10;91755.78;;;21.93;100.00
59274;BME280;45044;41.572;24.730;2023-06-05T13:05:39;91743.22;;;21.81;87.87
59274;BME280;45044;41.572;24.730;2023-06-05T13:08:06;91752.13;;;21.64;96.96
59274;BME280;45044;41.572;24.730;2023-06-05T13:10:33;91742.50;;;21.54;96.09
59274;BME280;45044;41.572;24.730;2023-06-05T13:12:59;91747.81;;;21.32;100.00
59274;BME280;45044;41.572;24.730;2023-06-05T13:15:26;91748.66;;;21.41;94.86
59274;BME280;45044;41.572;24.730;2023-06-05T13:17:53;91746.53;;;21.36;94.98
59274;BME280;45044;41.572;24.730;2023-06-05T13:20:21;91742.91;;;21.30;91.53
59274;BME280;45044;41.572;24.730;2023-06-05T13:22:48;91746.97;;;21.22;94.37
59274;BME280;45044;41.572;24.730;2023-06-05T13:25:14;91745.63;;;21.04;100.00
59274;BME280;45044;41.572;24.730;2023-06-05T13:27:41;91752.13;;;21.03;97.29
59274;BME280;45044;41.572;24.730;2023-06-05T13:30:09;91754.50;;;21.01;92.06
59274;BME280;45044;41.572;24.730;2023-06-05T13:32:36;91744.00;;;20.93;87.74